createdAt,value
2018-12-15T00:01:17.139Z,-0.38
2018-12-15T00:03:51.879Z,-0.44
2018-12-15T00:06:20.030Z,-0.36
2018-12-15T00:08:48.161Z,-0.39
2018-12-15T00:11:16.430Z,-0.31
2018-12-15T00:13:44.682Z,-0.32
2018-12-15T00:16:13.017Z,-0.29
2018-12-15T00:18:41.354Z,-0.23
2018-12-15T00:21:09.530Z,-0.40
2018-12-15T00:23:37.681Z,-0.30
2018-12-15T00:26:05.805Z,-0.15
2018-12-15T00:28:33.950Z,0.05
2018-12-15T00:31:02.088Z,-0.11
2018-12-15T00:33:30.258Z,-0.32
2018-12-15T00:35:58.395Z,-0.19
2018-12-15T00:38:26.614Z,-0.12
2018-12-15T00:40:54.749Z,-0.27
2018-12-15T00:43:22.859Z,-0.39
2018-12-15T00:45:51.013Z,-0.30
2018-12-15T00:48:19.141Z,-0.15
2018-12-15T00:50:47.281Z,-0.19
2018-12-15T00:53:15.490Z,-0.20
2018-12-15T00:55:43.629Z,-0.26
2018-12-15T00:58:11.839Z,-0.17
2018-12-15T01:00:40.001Z,-0.08
2018-12-15T01:03:08.213Z,-0.06
2018-12-15T01:05:36.461Z,-0.08
2018-12-15T01:08:04.582Z,-0.32
2018-12-15T01:10:32.800Z,-0.27
2018-12-15T01:13:01.002Z,-0.03
2018-12-15T01:15:34.697Z,-0.24
2018-12-15T01:18:02.848Z,-0.25
2018-12-15T01:20:30.985Z,-0.17
2018-12-15T01:22:59.099Z,-0.28
2018-12-15T01:25:27.235Z,-0.21
2018-12-15T01:27:55.366Z,-0.34
2018-12-15T01:30:23.501Z,-0.41
2018-12-15T01:32:51.729Z,-0.45
2018-12-15T01:35:19.874Z,-0.44
2018-12-15T01:37:48.013Z,-0.45
2018-12-15T01:40:16.325Z,-0.33
2018-12-15T01:42:44.575Z,-0.28
2018-12-15T01:45:12.877Z,-0.37
2018-12-15T01:47:41.026Z,-0.42
2018-12-15T01:50:09.151Z,-0.47
2018-12-15T01:52:37.314Z,-0.47
2018-12-15T01:55:05.940Z,-0.43
2018-12-15T01:57:34.157Z,-0.34
2018-12-15T02:00:02.290Z,-0.20
2018-12-15T02:02:30.478Z,-0.10
2018-12-15T02:04:58.601Z,0.09
2018-12-15T02:07:26.827Z,0.19
2018-12-15T02:09:54.955Z,0.03
2018-12-15T02:12:23.081Z,-0.23
2018-12-15T02:14:51.211Z,-0.26
2018-12-15T02:17:19.421Z,-0.19
2018-12-15T02:19:47.562Z,-0.06
2018-12-15T02:22:15.780Z,-0.22
2018-12-15T02:24:43.935Z,-0.25
2018-12-15T02:27:12.169Z,-0.29
2018-12-15T02:29:40.305Z,-0.15
2018-12-15T02:32:08.414Z,-0.29
2018-12-15T02:34:36.590Z,-0.32
2018-12-15T02:37:04.707Z,-0.38
2018-12-15T02:39:32.836Z,-0.41
2018-12-15T02:42:01.058Z,-0.52
2018-12-15T02:44:29.267Z,-0.56
2018-12-15T02:46:57.389Z,-0.56
2018-12-15T02:49:25.522Z,-0.58
2018-12-15T02:51:53.683Z,-0.60
2018-12-15T02:54:21.882Z,-0.54
2018-12-15T02:56:50.043Z,-0.55
2018-12-15T02:59:18.194Z,-0.43
2018-12-15T03:01:46.345Z,-0.28
2018-12-15T03:04:14.581Z,-0.49
2018-12-15T03:06:42.878Z,-0.58
2018-12-15T03:09:11.001Z,-0.58
2018-12-15T03:11:39.310Z,-0.48
2018-12-15T03:14:07.449Z,-0.46
2018-12-15T03:16:35.599Z,-0.43
2018-12-15T03:19:11.607Z,-0.29
2018-12-15T03:21:40.218Z,-0.27
2018-12-15T03:24:08.446Z,-0.21
2018-12-15T03:26:37.525Z,-0.25
2018-12-15T03:29:05.737Z,-0.27
2018-12-15T03:31:34.459Z,-0.07
2018-12-15T03:34:03.005Z,-0.02
2018-12-15T03:36:31.131Z,-0.19
2018-12-15T03:38:59.354Z,-0.06
2018-12-15T03:41:27.497Z,-0.14
2018-12-15T03:43:55.682Z,0.03
2018-12-15T03:46:23.956Z,0.10
2018-12-15T03:48:52.091Z,0.16
2018-12-15T03:51:20.478Z,-0.14
2018-12-15T03:53:48.668Z,-0.31
2018-12-15T03:56:16.863Z,-0.16
2018-12-15T03:58:45.060Z,-0.03
2018-12-15T04:01:13.209Z,-0.39
2018-12-15T04:03:41.351Z,-0.49
2018-12-15T04:06:09.492Z,-0.49
2018-12-15T04:08:37.660Z,-0.52
2018-12-15T04:11:05.889Z,-0.49
2018-12-15T04:13:34.058Z,-0.48
2018-12-15T04:16:02.206Z,-0.28
2018-12-15T04:18:30.347Z,-0.29
2018-12-15T04:20:58.498Z,-0.41
2018-12-15T04:23:26.622Z,-0.51
2018-12-15T04:25:54.856Z,-0.53
2018-12-15T04:28:23.007Z,-0.39
2018-12-15T04:30:51.149Z,-0.36
2018-12-15T04:33:19.382Z,-0.24
2018-12-15T04:35:47.677Z,-0.15
2018-12-15T04:38:16.056Z,-0.30
2018-12-15T04:40:44.542Z,-0.45
2018-12-15T04:43:12.658Z,-0.31
2018-12-15T04:45:41.007Z,-0.21
2018-12-15T04:48:11.243Z,-0.38
2018-12-15T04:50:40.035Z,-0.25
2018-12-15T04:53:08.177Z,-0.11
2018-12-15T04:55:36.310Z,-0.07
2018-12-15T04:58:04.438Z,-0.37
2018-12-15T05:00:32.608Z,-0.49
2018-12-15T05:03:00.831Z,-0.53
2018-12-15T05:05:29.158Z,-0.26
2018-12-15T05:07:57.302Z,-0.25
2018-12-15T05:10:25.443Z,-0.13
2018-12-15T05:12:53.568Z,-0.26
2018-12-15T05:15:21.805Z,-0.45
2018-12-15T05:17:49.927Z,-0.59
2018-12-15T05:20:18.081Z,-0.58
2018-12-15T05:22:46.194Z,-0.62
2018-12-15T05:25:14.622Z,-0.59
2018-12-15T05:27:42.750Z,-0.45
2018-12-15T05:30:11.193Z,-0.59
2018-12-15T05:32:39.334Z,-0.63
2018-12-15T05:35:07.633Z,-0.70
2018-12-15T05:37:35.809Z,-0.65
2018-12-15T05:40:04.418Z,-0.67
2018-12-15T05:42:32.777Z,-0.53
2018-12-15T05:45:00.897Z,-0.30
2018-12-15T05:47:29.018Z,-0.31
2018-12-15T05:49:57.149Z,-0.23
2018-12-15T05:52:25.290Z,-0.46
2018-12-15T05:54:53.429Z,-0.52
2018-12-15T05:57:21.579Z,-0.60
2018-12-15T05:59:49.806Z,-0.66
2018-12-15T06:02:18.606Z,-0.44
2018-12-15T06:04:46.748Z,-0.53
2018-12-15T06:07:15.089Z,-0.45
2018-12-15T06:09:43.323Z,-0.60
2018-12-15T06:12:12.326Z,-0.47
2018-12-15T06:14:40.465Z,-0.51
2018-12-15T06:17:08.612Z,-0.46
2018-12-15T06:19:36.745Z,-0.59
2018-12-15T06:22:04.956Z,-0.65
2018-12-15T06:24:33.099Z,-0.68
2018-12-15T06:27:01.332Z,-0.68
2018-12-15T06:29:29.462Z,-0.70
2018-12-15T06:31:57.726Z,-0.73
2018-12-15T06:34:25.865Z,-0.55
2018-12-15T06:36:54.005Z,-0.40
2018-12-15T06:39:22.240Z,-0.59
2018-12-15T06:41:50.476Z,-0.67
2018-12-15T06:44:18.609Z,-0.74
2018-12-15T06:46:46.930Z,-0.71
2018-12-15T06:49:15.108Z,-0.76
2018-12-15T06:51:43.497Z,-0.67
2018-12-15T06:54:11.626Z,-0.71
2018-12-15T06:56:39.775Z,-0.70
2018-12-15T06:59:07.966Z,-0.68
2018-12-15T07:01:36.127Z,-0.56
2018-12-15T07:04:04.354Z,-0.45
2018-12-15T07:06:32.497Z,-0.24
2018-12-15T07:09:00.621Z,-0.31
2018-12-15T07:11:28.778Z,-0.54
2018-12-15T07:13:56.956Z,-0.44
2018-12-15T07:16:25.106Z,-0.55
2018-12-15T07:18:53.242Z,-0.52
2018-12-15T07:21:21.458Z,-0.43
2018-12-15T07:23:49.594Z,-0.42
2018-12-15T07:26:17.751Z,-0.58
2018-12-15T07:28:45.869Z,-0.61
2018-12-15T07:31:14.966Z,-0.55
2018-12-15T07:33:43.255Z,-0.61
2018-12-15T07:36:11.446Z,-0.67
2018-12-15T07:38:39.566Z,-0.71
2018-12-15T07:41:07.962Z,-0.64
2018-12-15T07:43:36.222Z,-0.68
2018-12-15T07:46:04.383Z,-0.63
2018-12-15T07:48:32.610Z,-0.63
2018-12-15T07:51:00.753Z,-0.66
2018-12-15T07:53:28.894Z,-0.59
2018-12-15T07:55:57.309Z,-0.45
2018-12-15T07:58:25.447Z,-0.45
2018-12-15T08:00:53.596Z,-0.45
2018-12-15T08:03:21.815Z,-0.35
2018-12-15T08:05:50.186Z,-0.46
2018-12-15T08:08:18.352Z,-0.46
2018-12-15T08:10:51.909Z,-0.41
2018-12-15T08:13:28.302Z,-0.39
2018-12-15T08:15:57.609Z,-0.41
2018-12-15T08:18:25.863Z,-0.40
2018-12-15T08:20:54.034Z,-0.33
2018-12-15T08:23:22.166Z,-0.40
2018-12-15T08:25:50.394Z,-0.34
2018-12-15T08:28:18.730Z,-0.30
2018-12-15T08:30:46.863Z,-0.40
2018-12-15T08:33:15.136Z,-0.36
2018-12-15T08:35:43.258Z,-0.28
2018-12-15T08:38:11.499Z,-0.19
2018-12-15T08:40:39.651Z,-0.27
2018-12-15T08:43:07.790Z,-0.32
2018-12-15T08:45:36.040Z,-0.28
2018-12-15T08:48:04.294Z,-0.34
2018-12-15T08:50:32.506Z,-0.34
2018-12-15T08:53:00.754Z,-0.37
2018-12-15T08:55:28.885Z,-0.23
2018-12-15T08:57:57.023Z,-0.11
2018-12-15T09:00:25.173Z,-0.03
2018-12-15T09:02:53.337Z,-0.15
2018-12-15T09:05:21.459Z,-0.10
2018-12-15T09:07:49.701Z,-0.01
2018-12-15T09:10:17.849Z,-0.04
2018-12-15T09:12:45.986Z,-0.02
2018-12-15T09:15:14.361Z,0.11
2018-12-15T09:17:42.522Z,-0.07
2018-12-15T09:20:10.673Z,-0.03
2018-12-15T09:22:38.894Z,0.04
2018-12-15T09:25:07.028Z,0.07
2018-12-15T09:27:35.159Z,0.07
2018-12-15T09:30:03.375Z,0.12
2018-12-15T09:32:32.885Z,0.19
2018-12-15T09:35:01.042Z,0.23
2018-12-15T09:37:29.271Z,0.15
2018-12-15T09:39:57.397Z,0.19
2018-12-15T09:42:25.614Z,0.15
2018-12-15T09:44:53.827Z,0.15
2018-12-15T09:47:22.048Z,0.18
2018-12-15T09:49:50.578Z,0.24
2018-12-15T09:52:18.822Z,0.19
2018-12-15T09:54:46.959Z,0.19
2018-12-15T09:57:15.216Z,0.14
2018-12-15T09:59:43.332Z,0.22
2018-12-15T10:02:11.523Z,0.27
2018-12-15T10:04:39.762Z,0.43
2018-12-15T10:07:07.904Z,0.53
2018-12-15T10:09:36.029Z,0.69
2018-12-15T10:12:04.321Z,0.71
2018-12-15T10:14:32.475Z,0.78
2018-12-15T10:17:00.692Z,0.65
2018-12-15T10:19:28.835Z,0.56
2018-12-15T10:21:56.983Z,0.72
2018-12-15T10:24:25.103Z,0.71
2018-12-15T10:26:58.571Z,0.49
2018-12-15T10:29:32.153Z,0.68
2018-12-15T10:32:05.568Z,0.67
2018-12-15T10:34:33.729Z,0.81
2018-12-15T10:37:01.871Z,0.77
2018-12-15T10:39:30.099Z,0.95
2018-12-15T10:41:58.251Z,0.85
2018-12-15T10:44:26.473Z,0.84
2018-12-15T10:46:54.704Z,0.92
2018-12-15T10:49:22.843Z,0.63
2018-12-15T10:51:50.998Z,0.74
2018-12-15T10:54:19.160Z,0.71
2018-12-15T10:56:47.294Z,0.84
2018-12-15T10:59:15.701Z,0.81
2018-12-15T11:01:43.822Z,0.64
2018-12-15T11:04:11.966Z,0.91
2018-12-15T11:06:40.189Z,0.79
2018-12-15T11:09:08.829Z,0.91
2018-12-15T11:11:37.041Z,0.72
2018-12-15T11:14:05.367Z,0.64
2018-12-15T11:16:33.579Z,0.63
2018-12-15T11:19:01.711Z,0.77
2018-12-15T11:21:29.865Z,0.77
2018-12-15T11:23:58.042Z,0.65
2018-12-15T11:26:26.190Z,0.69
2018-12-15T11:28:54.321Z,0.66
2018-12-15T11:31:22.440Z,0.75
2018-12-15T11:33:50.579Z,0.81
2018-12-15T11:36:18.726Z,0.78
2018-12-15T11:38:46.885Z,0.68
2018-12-15T11:41:15.040Z,0.62
2018-12-15T11:43:43.176Z,0.62
2018-12-15T11:46:11.485Z,0.72
2018-12-15T11:48:39.609Z,0.81
2018-12-15T11:51:07.881Z,0.87
2018-12-15T11:53:36.008Z,0.87
2018-12-15T11:56:04.366Z,0.94
2018-12-15T11:58:32.549Z,0.87
2018-12-15T12:01:00.843Z,0.60
2018-12-15T12:03:28.961Z,0.68
2018-12-15T12:05:57.115Z,0.61
2018-12-15T12:08:25.814Z,0.75
2018-12-15T12:10:53.950Z,0.82
2018-12-15T12:13:22.112Z,0.76
2018-12-15T12:15:50.254Z,0.89
2018-12-15T12:18:18.435Z,0.81
2018-12-15T12:20:46.569Z,0.65
2018-12-15T12:23:14.694Z,0.57
2018-12-15T12:25:42.996Z,0.74
2018-12-15T12:28:11.271Z,0.76
2018-12-15T12:30:39.401Z,0.79
2018-12-15T12:33:07.643Z,0.84
2018-12-15T12:35:35.755Z,0.89
2018-12-15T12:38:04.015Z,0.75
2018-12-15T12:40:32.126Z,0.68
2018-12-15T12:43:00.241Z,0.80
2018-12-15T12:45:28.524Z,0.81
2018-12-15T12:47:57.632Z,0.85
2018-12-15T12:50:25.894Z,0.75
2018-12-15T12:52:54.020Z,0.78
2018-12-15T12:55:22.250Z,0.88
2018-12-15T12:57:50.437Z,0.82
2018-12-15T13:00:18.665Z,0.81
2018-12-15T13:02:46.807Z,0.82
2018-12-15T13:05:15.008Z,0.62
2018-12-15T13:07:43.219Z,0.61
2018-12-15T13:10:11.413Z,0.80
2018-12-15T13:12:39.552Z,0.81
2018-12-15T13:15:07.856Z,0.71
2018-12-15T13:17:35.974Z,0.72
2018-12-15T13:20:04.753Z,0.69
2018-12-15T13:22:33.002Z,0.66
2018-12-15T13:25:01.153Z,0.58
2018-12-15T13:27:29.285Z,0.67
2018-12-15T13:29:57.433Z,0.65
2018-12-15T13:32:25.625Z,0.52
2018-12-15T13:34:53.834Z,0.55
2018-12-15T13:37:22.148Z,0.55
2018-12-15T13:39:50.332Z,0.44
2018-12-15T13:42:18.604Z,0.41
2018-12-15T13:44:46.790Z,0.51
2018-12-15T13:47:14.921Z,0.55
2018-12-15T13:49:43.070Z,0.51
2018-12-15T13:52:11.361Z,0.56
2018-12-15T13:54:39.494Z,0.49
2018-12-15T13:57:07.748Z,0.50
2018-12-15T13:59:35.882Z,0.47
2018-12-15T14:02:04.185Z,0.32
2018-12-15T14:04:32.423Z,0.33
2018-12-15T14:07:00.760Z,0.36
2018-12-15T14:09:28.949Z,0.37
2018-12-15T14:11:57.083Z,0.30
2018-12-15T14:14:25.198Z,0.24
2018-12-15T14:16:53.417Z,0.20
2018-12-15T14:19:21.704Z,0.21
2018-12-15T14:21:49.829Z,0.19
2018-12-15T14:24:17.957Z,0.14
2018-12-15T14:26:46.086Z,0.30
2018-12-15T14:29:14.202Z,0.23
2018-12-15T14:31:42.421Z,0.27
2018-12-15T14:34:10.552Z,0.35
2018-12-15T14:36:38.695Z,0.31
2018-12-15T14:39:07.766Z,0.31
2018-12-15T14:41:36.276Z,0.33
2018-12-15T14:44:04.477Z,0.38
2018-12-15T14:46:32.634Z,0.33
2018-12-15T14:49:00.753Z,0.41
2018-12-15T14:51:28.901Z,0.26
2018-12-15T14:53:57.037Z,0.15
2018-12-15T14:56:25.181Z,0.21
2018-12-15T14:58:53.313Z,0.20
2018-12-15T15:01:21.538Z,0.16
2018-12-15T15:03:49.777Z,0.12
2018-12-15T15:06:17.928Z,0.13
2018-12-15T15:08:46.047Z,0.17
2018-12-15T15:11:14.161Z,0.11
2018-12-15T15:13:42.465Z,0.09
2018-12-15T15:16:10.751Z,0.14
2018-12-15T15:18:38.884Z,0.27
2018-12-15T15:21:07.043Z,0.14
2018-12-15T15:23:35.276Z,0.10
2018-12-15T15:26:04.187Z,0.19
2018-12-15T15:28:32.306Z,0.17
2018-12-15T15:31:00.437Z,0.14
2018-12-15T15:33:28.650Z,0.19
2018-12-15T15:38:31.292Z,0.05
2018-12-15T15:40:59.411Z,0.05
2018-12-15T15:43:27.537Z,0.14
2018-12-15T15:45:55.766Z,0.13
2018-12-15T15:48:23.887Z,0.12
2018-12-15T15:50:52.014Z,0.12
2018-12-15T15:53:20.134Z,0.07
2018-12-15T15:55:48.417Z,0.12
2018-12-15T15:58:16.623Z,0.26
2018-12-15T16:00:44.805Z,0.17
2018-12-15T16:03:12.956Z,0.12
2018-12-15T16:05:41.178Z,0.12
2018-12-15T16:08:09.399Z,0.04
2018-12-15T16:10:38.401Z,0.15
2018-12-15T16:13:06.550Z,0.06
2018-12-15T16:15:34.685Z,-0.02
2018-12-15T16:18:02.815Z,-0.02
2018-12-15T16:20:30.970Z,-0.02
2018-12-15T16:22:59.089Z,0.06
2018-12-15T16:25:27.312Z,-0.01
2018-12-15T16:27:55.476Z,0.00
2018-12-15T16:30:23.606Z,-0.05
2018-12-15T16:32:51.845Z,-0.02
2018-12-15T16:35:20.054Z,0.04
2018-12-15T16:37:48.229Z,-0.04
2018-12-15T16:40:16.441Z,-0.02
2018-12-15T16:42:44.628Z,-0.03
2018-12-15T16:45:12.971Z,0.04
2018-12-15T16:47:41.209Z,-0.03
2018-12-15T16:50:12.469Z,0.00
2018-12-15T16:52:41.023Z,-0.04
2018-12-15T16:55:09.979Z,0.01
2018-12-15T16:57:38.222Z,-0.04
2018-12-15T17:00:11.885Z,0.00
2018-12-15T17:02:40.149Z,-0.03
2018-12-15T17:05:08.454Z,0.01
2018-12-15T17:07:37.632Z,0.00
2018-12-15T17:10:07.594Z,-0.04
2018-12-15T17:12:35.831Z,-0.04
2018-12-15T17:15:05.193Z,0.06
2018-12-15T17:17:33.426Z,0.06
2018-12-15T17:20:01.741Z,-0.05
2018-12-15T17:22:29.902Z,-0.09
2018-12-15T17:24:58.077Z,-0.15
2018-12-15T17:27:29.233Z,-0.10
2018-12-15T17:29:57.417Z,-0.06
2018-12-15T17:32:25.759Z,-0.02
2018-12-15T17:34:54.006Z,-0.10
2018-12-15T17:37:22.203Z,-0.08
2018-12-15T17:39:50.363Z,-0.07
2018-12-15T17:42:18.597Z,-0.11
2018-12-15T17:44:46.770Z,-0.13
2018-12-15T17:47:14.905Z,-0.08
2018-12-15T17:49:43.102Z,-0.16
2018-12-15T17:52:11.331Z,-0.06
2018-12-15T17:54:39.465Z,-0.15
2018-12-15T17:57:07.602Z,-0.25
2018-12-15T17:59:35.749Z,-0.28
2018-12-15T18:02:03.992Z,-0.18
2018-12-15T18:04:32.126Z,-0.16
2018-12-15T18:07:00.274Z,-0.21
2018-12-15T18:09:28.406Z,-0.22
2018-12-15T18:11:56.541Z,-0.25
2018-12-15T18:14:24.697Z,-0.31
2018-12-15T18:16:52.842Z,-0.40
2018-12-15T18:19:21.344Z,-0.50
2018-12-15T18:21:49.487Z,-0.41
2018-12-15T18:24:17.641Z,-0.54
2018-12-15T18:26:45.850Z,-0.62
2018-12-15T18:29:14.085Z,-0.60
2018-12-15T18:31:42.305Z,-0.55
2018-12-15T18:34:10.457Z,-0.50
2018-12-15T18:36:38.648Z,-0.48
2018-12-15T18:39:07.570Z,-0.56
2018-12-15T18:41:36.016Z,-0.62
2018-12-15T18:44:04.330Z,-0.69
2018-12-15T18:46:32.467Z,-0.57
2018-12-15T18:49:00.619Z,-0.52
2018-12-15T18:51:28.771Z,-0.52
2018-12-15T18:53:56.903Z,-0.54
2018-12-15T18:56:25.227Z,-0.46
2018-12-15T18:58:53.646Z,-0.39
2018-12-15T19:01:22.032Z,-0.48
2018-12-15T19:03:50.257Z,-0.35
2018-12-15T19:06:18.527Z,-0.40
2018-12-15T19:08:46.685Z,-0.29
2018-12-15T19:11:14.860Z,-0.42
2018-12-15T19:13:42.982Z,-0.47
2018-12-15T19:16:11.135Z,-0.50
2018-12-15T19:18:39.363Z,-0.52
2018-12-15T19:21:08.194Z,-0.55
2018-12-15T19:23:36.613Z,-0.51
2018-12-15T19:26:04.894Z,-0.48
2018-12-15T19:28:33.033Z,-0.47
2018-12-15T19:31:01.286Z,-0.51
2018-12-15T19:33:29.444Z,-0.60
2018-12-15T19:35:57.573Z,-0.55
2018-12-15T19:38:25.710Z,-0.55
2018-12-15T19:40:53.847Z,-0.61
2018-12-15T19:43:22.002Z,-0.62
2018-12-15T19:45:50.198Z,-0.68
2018-12-15T19:48:18.349Z,-0.67
2018-12-15T19:50:46.481Z,-0.68
2018-12-15T19:53:14.602Z,-0.74
2018-12-15T19:55:42.734Z,-0.74
2018-12-15T19:58:10.866Z,-0.83
2018-12-15T20:00:39.127Z,-0.74
2018-12-15T20:03:07.338Z,-0.93
2018-12-15T20:05:35.549Z,-0.92
2018-12-15T20:08:03.784Z,-1.02
2018-12-15T20:10:31.943Z,-1.06
2018-12-15T20:13:00.117Z,-1.24
2018-12-15T20:15:28.234Z,-1.38
2018-12-15T20:17:56.498Z,-1.47
2018-12-15T20:20:24.697Z,-1.57
2018-12-15T20:22:52.848Z,-1.67
2018-12-15T20:25:20.985Z,-1.83
2018-12-15T20:27:49.136Z,-1.71
2018-12-15T20:30:17.519Z,-1.87
2018-12-15T20:32:45.704Z,-1.95
2018-12-15T20:35:13.931Z,-1.90
2018-12-15T20:37:42.068Z,-1.94
2018-12-15T20:40:10.434Z,-2.03
2018-12-15T20:42:38.689Z,-2.08
2018-12-15T20:45:07.084Z,-2.17
2018-12-15T20:47:35.257Z,-2.23
2018-12-15T20:50:03.870Z,-2.26
2018-12-15T20:52:31.989Z,-2.27
2018-12-15T20:55:00.113Z,-2.31
2018-12-15T20:57:28.264Z,-2.42
2018-12-15T20:59:56.390Z,-2.47
2018-12-15T21:02:24.709Z,-2.49
2018-12-15T21:04:52.849Z,-2.53
2018-12-15T21:07:20.983Z,-2.55
2018-12-15T21:09:49.134Z,-2.56
2018-12-15T21:12:17.412Z,-2.58
2018-12-15T21:14:45.698Z,-2.60
2018-12-15T21:17:15.014Z,-2.64
2018-12-15T21:19:47.838Z,-2.62
2018-12-15T21:22:13.447Z,-2.64
2018-12-15T21:24:41.749Z,-2.66
2018-12-15T21:27:09.924Z,-2.69
2018-12-15T21:29:38.058Z,-2.73
2018-12-15T21:32:06.262Z,-2.75
2018-12-15T21:34:34.506Z,-2.76
2018-12-15T21:37:02.693Z,-2.77
2018-12-15T21:39:30.829Z,-2.79
2018-12-15T21:41:59.025Z,-2.78
2018-12-15T21:44:27.165Z,-2.79
2018-12-15T21:46:55.316Z,-2.75
2018-12-15T21:49:23.486Z,-2.65
2018-12-15T21:51:56.240Z,-2.71
2018-12-15T21:54:21.911Z,-2.78
2018-12-15T21:56:50.050Z,-2.82
2018-12-15T22:02:38.498Z,-2.83
2018-12-15T22:05:06.939Z,-2.81
2018-12-15T22:07:35.149Z,-2.81
2018-12-15T22:10:03.774Z,-2.84
2018-12-15T22:12:31.907Z,-2.84
2018-12-15T22:15:00.042Z,-2.84
2018-12-15T22:17:28.189Z,-2.81
2018-12-15T22:19:56.337Z,-2.72
2018-12-15T22:22:24.483Z,-2.74
2018-12-15T22:24:52.947Z,-2.75
2018-12-15T22:27:21.153Z,-2.71
2018-12-15T22:29:49.311Z,-2.72
2018-12-15T22:32:17.618Z,-2.67
2018-12-15T22:34:45.943Z,-2.68
2018-12-15T22:37:14.082Z,-2.68
2018-12-15T22:39:42.223Z,-2.68
2018-12-15T22:42:10.383Z,-2.67
2018-12-15T22:44:38.679Z,-2.66
2018-12-15T22:47:06.822Z,-2.62
2018-12-15T22:49:34.982Z,-2.63
2018-12-15T22:52:09.587Z,-2.63
2018-12-15T22:54:33.234Z,-2.50
2018-12-15T22:57:01.382Z,-2.52
2018-12-15T22:59:29.786Z,-2.56
2018-12-15T23:01:58.501Z,-2.58
2018-12-15T23:04:26.953Z,-2.63
2018-12-15T23:06:55.087Z,-2.64
2018-12-15T23:09:23.292Z,-2.67
2018-12-15T23:11:51.690Z,-2.64
2018-12-15T23:14:19.829Z,-2.67
2018-12-15T23:16:48.052Z,-2.68
2018-12-15T23:19:16.222Z,-2.67
2018-12-15T23:21:44.339Z,-2.63
2018-12-15T23:24:12.517Z,-2.62
2018-12-15T23:26:40.666Z,-2.58
2018-12-15T23:29:08.817Z,-2.58
2018-12-15T23:31:36.977Z,-2.55
2018-12-15T23:34:05.213Z,-2.56
2018-12-15T23:36:33.568Z,-2.56
2018-12-15T23:39:01.701Z,-2.46
2018-12-15T23:41:29.909Z,-2.47
2018-12-15T23:43:58.203Z,-2.50
2018-12-15T23:46:26.407Z,-2.51
2018-12-15T23:48:54.694Z,-2.47
2018-12-15T23:51:23.120Z,-2.41
2018-12-15T23:53:51.438Z,-2.42
2018-12-15T23:56:19.709Z,-2.39
2018-12-15T23:58:47.879Z,-2.40
